Time;durP1;ratioP1;P1;durP2;ratioP2;P2;SDS_P1;SDS_P2;PMS_P1;PMS_P2;Temp;Humidity;BMP_temperature;BMP_pressure;BME280_temperature;BME280_humidity;BME280_pressure;Samples;Min_cycle;Max_cycle;Signal;HPM_P1;HPM_P2
2023/01/06 00:01:54;;;;;;;34.45;22.52;;;10.60;99.90;;;;;;5105850;27;20118;-80
2023/01/06 00:04:20;;;;;;;40.05;23.60;;;10.60;99.90;;;;;;5129823;27;20035;-80
2023/01/06 00:06:45;;;;;;;37.58;23.38;;;10.60;99.90;;;;;;5090907;28;20032;-80
2023/01/06 00:09:11;;;;;;;36.53;22.70;;;10.60;99.90;;;;;;5110735;27;20431;-80
2023/01/06 00:11:37;;;;;;;34.15;22.00;;;10.60;99.90;;;;;;5112020;27;20046;-80
2023/01/06 00:14:03;;;;;;;35.85;23.85;;;10.60;99.90;;;;;;5107230;27;20036;-80
2023/01/06 00:16:29;;;;;;;36.15;23.83;;;10.60;99.90;;;;;;5127035;27;20040;-80
2023/01/06 00:18:57;;;;;;;37.90;24.48;;;10.60;99.90;;;;;;5108905;27;20126;-81
2023/01/06 00:21:23;;;;;;;39.65;25.00;;;10.60;99.90;;;;;;5122881;27;20379;-80
2023/01/06 00:23:48;;;;;;;34.30;24.50;;;10.60;99.90;;;;;;5110223;28;20051;-81
2023/01/06 00:26:14;;;;;;;35.38;24.63;;;10.60;99.90;;;;;;5105376;28;20469;-82
2023/01/06 00:28:40;;;;;;;33.88;23.98;;;10.70;99.90;;;;;;5108813;28;20399;-82
2023/01/06 00:31:12;;;;;;;34.53;23.77;;;10.70;99.90;;;;;;5103219;28;20039;-81
2023/01/06 00:33:38;;;;;;;33.33;23.50;;;10.70;99.90;;;;;;5110590;28;20043;-81
2023/01/06 00:36:05;;;;;;;32.25;22.92;;;10.70;99.90;;;;;;5104185;28;20373;-82
2023/01/06 00:38:30;;;;;;;30.33;22.60;;;10.70;99.90;;;;;;5102400;28;20512;-82
2023/01/06 00:40:56;;;;;;;31.48;22.80;;;10.70;99.90;;;;;;5105847;28;20070;-81
2023/01/06 00:43:22;;;;;;;31.00;22.33;;;10.70;99.90;;;;;;5101795;28;20031;-81
2023/01/06 00:45:47;;;;;;;29.05;21.02;;;10.70;99.90;;;;;;5109880;28;20043;-82
2023/01/06 00:48:13;;;;;;;30.73;22.50;;;10.70;99.90;;;;;;5106741;28;20506;-81
2023/01/06 00:50:39;;;;;;;29.10;21.77;;;10.70;99.90;;;;;;5102765;28;20063;-81
2023/01/06 00:53:04;;;;;;;28.80;21.73;;;10.70;99.90;;;;;;5101585;28;20120;-82
2023/01/06 00:55:30;;;;;;;30.88;20.55;;;10.70;99.90;;;;;;5105988;28;20036;-80
2023/01/06 00:57:56;;;;;;;27.23;19.70;;;10.70;99.90;;;;;;5103626;28;20044;-79
2023/01/06 01:00:21;;;;;;;25.08;19.25;;;10.70;99.90;;;;;;5099936;28;20035;-81
2023/01/06 01:02:47;;;;;;;25.13;17.95;;;10.70;99.90;;;;;;5103929;28;20102;-80
2023/01/06 01:05:13;;;;;;;25.40;18.08;;;10.80;99.90;;;;;;5100071;28;20480;-80
2023/01/06 01:07:39;;;;;;;20.20;14.93;;;10.80;99.90;;;;;;5094224;28;20034;-80
2023/01/06 01:10:06;;;;;;;19.20;14.98;;;10.80;99.90;;;;;;5109281;28;20047;-80
2023/01/06 01:12:32;;;;;;;20.35;14.00;;;10.80;99.90;;;;;;5086526;28;20138;-80
2023/01/06 01:14:58;;;;;;;18.70;14.00;;;10.80;99.90;;;;;;5103777;28;20127;-81
2023/01/06 01:17:29;;;;;;;16.20;12.40;;;10.80;99.90;;;;;;5107258;27;20166;-80
2023/01/06 01:19:56;;;;;;;18.92;13.82;;;10.80;99.90;;;;;;5105945;28;20051;-80
2023/01/06 01:22:24;;;;;;;19.08;14.35;;;10.80;99.90;;;;;;5097996;28;20062;-79
2023/01/06 01:24:50;;;;;;;18.15;13.98;;;10.70;99.90;;;;;;5097277;27;20047;-80
2023/01/06 01:27:16;;;;;;;18.00;14.15;;;10.70;99.90;;;;;;5105087;27;20070;-81
2023/01/06 01:29:41;;;;;;;20.15;14.70;;;10.70;99.90;;;;;;5130072;27;20038;-80
2023/01/06 01:32:07;;;;;;;18.08;13.02;;;10.70;99.90;;;;;;5116907;27;20058;-80
2023/01/06 01:34:33;;;;;;;18.90;13.73;;;10.60;99.90;;;;;;5142160;27;20027;-81
2023/01/06 01:36:59;;;;;;;20.40;13.70;;;10.60;99.90;;;;;;5119950;27;20035;-80
2023/01/06 01:39:28;;;;;;;18.88;14.07;;;10.60;99.90;;;;;;5119420;27;20392;-81
2023/01/06 01:41:55;;;;;;;17.92;13.30;;;10.60;99.90;;;;;;5126393;27;20066;-81
2023/01/06 01:44:49;;;;;;;19.10;13.88;;;10.60;99.90;;;;;;5119722;27;20042;-81
2023/01/06 01:47:21;;;;;;;18.58;13.02;;;10.70;99.90;;;;;;5101302;27;20077;-81
2023/01/06 01:49:49;;;;;;;15.15;12.65;;;10.70;99.90;;;;;;5100958;27;20040;-81
2023/01/06 01:52:16;;;;;;;17.55;12.00;;;10.70;99.90;;;;;;5101104;28;20395;-81
2023/01/06 01:54:43;;;;;;;16.02;11.88;;;10.70;99.90;;;;;;5129936;27;20077;-81
2023/01/06 01:57:15;;;;;;;19.52;11.95;;;10.70;99.90;;;;;;5138296;27;20043;-81
2023/01/06 01:59:43;;;;;;;17.27;11.32;;;10.70;99.90;;;;;;5102778;27;20035;-81
2023/01/06 02:02:09;;;;;;;16.48;12.20;;;10.70;99.90;;;;;;5093516;28;20438;-81
2023/01/06 02:04:38;;;;;;;16.52;12.55;;;10.70;99.90;;;;;;5135916;27;20027;-81
2023/01/06 02:07:05;;;;;;;17.30;12.30;;;10.70;99.90;;;;;;5103567;27;20554;-81
2023/01/06 02:09:39;;;;;;;16.52;12.32;;;10.70;99.90;;;;;;5112116;27;20502;-81
2023/01/06 02:12:05;;;;;;;16.63;11.75;;;10.70;99.90;;;;;;5125855;27;20043;-82
2023/01/06 02:14:31;;;;;;;16.25;11.68;;;10.70;99.90;;;;;;5118132;27;20114;-81
2023/01/06 02:17:03;;;;;;;17.25;12.43;;;10.60;99.90;;;;;;5101545;27;20191;-80
2023/01/06 02:19:53;;;;;;;16.75;11.15;;;10.60;99.90;;;;;;5127415;27;20035;-81
2023/01/06 02:22:34;;;;;;;16.30;10.88;;;10.60;99.90;;;;;;5106340;27;20039;-81
2023/01/06 02:25:21;;;;;;;17.77;11.63;;;10.60;99.90;;;;;;5103921;27;20047;-81
2023/01/06 02:27:58;;;;;;;14.20;10.77;;;10.60;99.90;;;;;;5111463;27;20111;-81
2023/01/06 02:30:29;;;;;;;15.25;11.07;;;10.60;99.90;;;;;;5097764;28;20047;-80
2023/01/06 02:33:06;;;;;;;13.90;10.73;;;10.60;99.90;;;;;;5119910;27;20766;-80
2023/01/06 02:35:43;;;;;;;14.80;10.48;;;10.60;99.90;;;;;;5125242;27;20031;-81
2023/01/06 02:38:33;;;;;;;15.88;10.50;;;10.60;99.90;;;;;;5104632;27;20067;-81
2023/01/06 02:41:10;;;;;;;12.95;10.40;;;10.60;99.90;;;;;;5100469;28;20050;-82
2023/01/06 02:43:59;;;;;;;13.20;9.70;;;10.60;99.90;;;;;;5142247;27;20031;-81
2023/01/06 02:46:43;;;;;;;14.57;9.35;;;10.70;99.90;;;;;;5100073;28;20036;-82
2023/01/06 02:49:36;;;;;;;12.57;8.85;;;10.60;99.90;;;;;;5103834;27;20050;-82
2023/01/06 02:52:21;;;;;;;13.48;8.32;;;10.60;99.90;;;;;;5117752;27;20075;-82
2023/01/06 02:55:10;;;;;;;12.50;8.43;;;10.60;99.90;;;;;;5108411;27;20046;-82
2023/01/06 02:57:39;;;;;;;10.57;7.32;;;10.60;99.90;;;;;;5095532;28;20171;-82
2023/01/06 03:00:19;;;;;;;11.70;7.90;;;10.60;99.90;;;;;;5099523;28;20119;-82
2023/01/06 03:02:52;;;;;;;13.17;8.33;;;10.70;99.90;;;;;;5106170;27;20047;-82
2023/01/06 03:05:17;;;;;;;11.40;8.32;;;10.60;99.90;;;;;;5122408;27;20047;-82
2023/01/06 03:07:46;;;;;;;12.15;8.13;;;10.60;99.90;;;;;;5103913;28;20038;-82
2023/01/06 03:10:13;;;;;;;13.32;8.55;;;10.60;99.90;;;;;;5111471;27;20043;-81
2023/01/06 03:13:07;;;;;;;12.85;9.00;;;10.60;99.90;;;;;;5145681;27;20118;-81
2023/01/06 03:15:32;;;;;;;12.43;7.65;;;10.60;99.90;;;;;;5105795;28;20070;-82
2023/01/06 03:17:58;;;;;;;11.90;8.43;;;10.60;99.90;;;;;;5106234;27;20062;-81
2023/01/06 03:20:24;;;;;;;12.13;8.07;;;10.60;99.90;;;;;;5104198;27;20097;-82
2023/01/06 03:22:49;;;;;;;12.63;8.40;;;10.60;99.90;;;;;;5102388;28;20038;-81
2023/01/06 03:25:15;;;;;;;11.45;8.27;;;10.60;99.90;;;;;;5136739;27;20035;-82
2023/01/06 03:27:41;;;;;;;11.15;8.38;;;10.60;99.90;;;;;;5103355;28;20075;-81
2023/01/06 03:30:11;;;;;;;11.23;8.75;;;10.60;99.90;;;;;;5125670;27;20485;-82
2023/01/06 03:32:53;;;;;;;15.15;9.82;;;10.60;99.90;;;;;;5092244;28;20040;-82
2023/01/06 03:35:35;;;;;;;11.10;9.00;;;10.60;99.90;;;;;;5133374;27;20035;-82
2023/01/06 03:38:33;;;;;;;11.50;8.63;;;10.60;99.90;;;;;;5118316;28;20411;-82
2023/01/06 03:41:22;;;;;;;12.00;9.55;;;10.60;99.90;;;;;;5120013;28;20040;-82
2023/01/06 03:44:07;;;;;;;12.75;9.70;;;10.60;99.90;;;;;;5125455;28;20043;-83
2023/01/06 03:46:44;;;;;;;11.45;9.63;;;10.60;99.90;;;;;;5096999;28;20046;-83
2023/01/06 03:49:18;;;;;;;11.75;9.27;;;10.60;99.90;;;;;;5143788;27;20040;-82
2023/01/06 03:51:53;;;;;;;12.90;10.82;;;10.60;99.90;;;;;;5122155;28;20040;-82
2023/01/06 03:54:39;;;;;;;12.38;9.95;;;10.60;99.90;;;;;;5143709;27;20042;-82
2023/01/06 03:57:33;;;;;;;12.70;10.23;;;10.50;99.90;;;;;;5121286;28;20126;-82
2023/01/06 04:00:13;;;;;;;12.57;10.60;;;10.50;99.90;;;;;;5111890;28;20047;-82
2023/01/06 04:02:40;;;;;;;12.15;10.85;;;10.50;99.90;;;;;;5115308;28;20104;-82
2023/01/06 04:05:10;;;;;;;13.20;11.60;;;10.50;99.90;;;;;;5125313;28;20391;-82
2023/01/06 04:07:38;;;;;;;14.07;12.20;;;10.50;99.90;;;;;;5089129;28;20114;-80
2023/01/06 04:10:05;;;;;;;15.05;12.68;;;10.50;99.90;;;;;;5132875;27;20100;-81
2023/01/06 04:12:39;;;;;;;14.15;12.38;;;10.50;99.90;;;;;;5134502;27;20042;-80
2023/01/06 04:15:14;;;;;;;15.02;12.40;;;10.50;99.90;;;;;;5101368;28;20048;-82
2023/01/06 04:17:41;;;;;;;13.65;12.25;;;10.50;99.90;;;;;;5117396;28;20495;-81
2023/01/06 04:20:09;;;;;;;15.52;12.35;;;10.50;99.90;;;;;;5124704;27;20040;-81
2023/01/06 04:22:35;;;;;;;13.32;11.93;;;10.50;99.90;;;;;;5132824;27;20035;-81
2023/01/06 04:25:01;;;;;;;13.90;12.07;;;10.60;99.90;;;;;;5097881;28;20067;-82
2023/01/06 04:27:27;;;;;;;12.88;11.48;;;10.60;99.90;;;;;;5120536;28;20047;-82
2023/01/06 04:29:53;;;;;;;12.63;11.20;;;10.60;99.90;;;;;;5104017;28;20456;-81
2023/01/06 04:32:18;;;;;;;13.32;11.65;;;10.50;99.90;;;;;;5126242;28;20039;-82
2023/01/06 04:34:44;;;;;;;13.43;11.70;;;10.50;99.90;;;;;;5124211;28;20039;-82
2023/01/06 04:37:10;;;;;;;14.82;12.18;;;10.50;99.90;;;;;;5124591;27;20027;-81
2023/01/06 04:39:36;;;;;;;13.60;12.23;;;10.50;99.90;;;;;;5136451;27;20032;-82
2023/01/06 04:42:01;;;;;;;14.88;13.38;;;10.50;99.90;;;;;;5077694;28;20055;-81
2023/01/06 04:44:27;;;;;;;15.25;13.40;;;10.50;99.90;;;;;;5146802;27;20156;-81
2023/01/06 04:46:52;;;;;;;17.25;13.65;;;10.50;99.90;;;;;;5107631;28;20040;-82
2023/01/06 04:49:18;;;;;;;14.80;13.40;;;10.50;99.90;;;;;;5121558;27;20075;-81
2023/01/06 04:51:44;;;;;;;14.95;13.45;;;10.50;99.90;;;;;;5118513;27;20115;-81
2023/01/06 04:54:09;;;;;;;14.85;13.45;;;10.50;99.90;;;;;;5108727;27;20121;-82
2023/01/06 04:56:35;;;;;;;15.23;13.18;;;10.60;99.90;;;;;;5102427;27;20052;-81
2023/01/06 04:59:00;;;;;;;15.35;13.77;;;10.50;99.90;;;;;;5108845;27;20050;-82
2023/01/06 05:01:26;;;;;;;15.52;14.02;;;10.50;99.90;;;;;;5110874;27;20031;-81
2023/01/06 05:03:52;;;;;;;14.48;12.80;;;10.50;99.90;;;;;;5105753;27;20047;-81
2023/01/06 05:06:19;;;;;;;13.63;12.23;;;10.50;99.90;;;;;;5087852;27;20069;-83
2023/01/06 05:08:45;;;;;;;14.00;12.50;;;10.50;99.90;;;;;;5135960;27;20035;-82
2023/01/06 05:11:12;;;;;;;12.48;10.32;;;10.50;99.90;;;;;;5109783;27;20050;-82
2023/01/06 05:13:38;;;;;;;11.65;9.65;;;10.50;99.90;;;;;;5112883;27;20047;-82
2023/01/06 05:16:17;;;;;;;12.50;8.88;;;10.50;99.90;;;;;;5112765;27;20107;-82
2023/01/06 05:18:43;;;;;;;9.88;8.38;;;10.50;99.90;;;;;;5120451;27;20066;-82
2023/01/06 05:21:09;;;;;;;10.30;7.65;;;10.50;99.90;;;;;;5124816;27;20522;-81
2023/01/06 05:23:36;;;;;;;10.13;6.90;;;10.60;99.90;;;;;;5103749;27;20049;-81
2023/01/06 05:26:03;;;;;;;8.48;6.93;;;10.60;99.90;;;;;;5093030;28;20040;-81
2023/01/06 05:28:29;;;;;;;9.05;6.38;;;10.60;99.90;;;;;;5110854;27;20050;-82
2023/01/06 05:31:03;;;;;;;9.13;5.93;;;10.60;99.90;;;;;;5117936;27;20044;-82
2023/01/06 05:33:30;;;;;;;9.13;6.18;;;10.70;99.90;;;;;;5101663;27;20042;-81
2023/01/06 05:36:00;;;;;;;7.82;5.40;;;10.70;99.90;;;;;;5131567;27;20095;-82
2023/01/06 05:38:26;;;;;;;9.32;6.38;;;10.70;99.90;;;;;;5114531;27;20039;-82
2023/01/06 05:40:52;;;;;;;7.53;5.30;;;10.70;99.90;;;;;;5113045;27;20388;-81
2023/01/06 05:43:19;;;;;;;8.18;5.13;;;10.70;99.90;;;;;;5105078;27;20039;-81
2023/01/06 05:45:45;;;;;;;9.20;5.22;;;10.70;99.90;;;;;;5102593;27;20035;-81
2023/01/06 05:48:10;;;;;;;8.82;5.30;;;10.70;99.90;;;;;;5110124;27;20467;-82
2023/01/06 05:50:36;;;;;;;9.45;5.78;;;10.70;99.90;;;;;;5101295;28;20035;-81
2023/01/06 05:53:01;;;;;;;8.43;5.70;;;10.70;99.90;;;;;;5100264;27;20039;-83
2023/01/06 05:55:27;;;;;;;8.55;5.97;;;10.70;99.90;;;;;;5105114;27;20124;-83
2023/01/06 05:57:53;;;;;;;9.00;7.00;;;10.80;99.90;;;;;;5122019;27;20127;-83
2023/01/06 06:00:18;;;;;;;9.50;7.32;;;10.70;99.90;;;;;;5098474;28;20038;-83
2023/01/06 06:02:44;;;;;;;10.15;7.28;;;10.70;99.90;;;;;;5116957;27;20111;-79
2023/01/06 06:05:10;;;;;;;9.38;7.40;;;10.70;99.90;;;;;;5110571;27;20361;-79
2023/01/06 06:07:36;;;;;;;10.35;7.05;;;10.70;99.90;;;;;;5096251;28;20122;-80
2023/01/06 06:10:01;;;;;;;9.30;7.10;;;10.70;99.90;;;;;;5104876;27;20038;-79
2023/01/06 06:12:27;;;;;;;9.65;7.45;;;10.70;99.90;;;;;;5109480;27;20088;-79
2023/01/06 06:14:53;;;;;;;10.57;7.82;;;10.70;99.90;;;;;;5107753;27;20049;-78
2023/01/06 06:17:18;;;;;;;10.05;7.30;;;10.70;99.90;;;;;;5096187;27;20037;-79
2023/01/06 06:19:44;;;;;;;10.02;7.57;;;10.70;99.90;;;;;;5111036;27;20031;-79
2023/01/06 06:22:09;;;;;;;11.50;7.90;;;10.70;99.90;;;;;;5117477;27;20451;-78
2023/01/06 06:24:35;;;;;;;10.77;6.95;;;10.60;99.90;;;;;;5103165;27;20039;-79
2023/01/06 06:27:01;;;;;;;10.48;7.47;;;10.70;99.90;;;;;;5110426;27;20085;-78
2023/01/06 06:29:26;;;;;;;10.52;7.35;;;10.60;99.90;;;;;;5126436;27;20043;-79
2023/01/06 06:31:52;;;;;;;9.98;7.38;;;10.60;99.90;;;;;;5110213;27;20042;-78
2023/01/06 06:34:18;;;;;;;9.35;7.35;;;10.50;99.90;;;;;;5108677;27;20063;-78
2023/01/06 06:36:43;;;;;;;9.82;7.53;;;10.50;99.90;;;;;;5123596;27;20383;-79
2023/01/06 06:39:09;;;;;;;11.15;7.97;;;10.50;99.90;;;;;;5111158;27;20119;-79
2023/01/06 06:41:34;;;;;;;11.25;8.18;;;10.50;99.90;;;;;;5098258;27;20118;-79
2023/01/06 06:44:00;;;;;;;9.65;8.00;;;10.40;99.90;;;;;;5120512;27;20039;-79
2023/01/06 06:46:26;;;;;;;10.50;8.82;;;10.40;99.90;;;;;;5101688;27;20092;-80
2023/01/06 06:48:51;;;;;;;10.80;9.05;;;10.40;99.90;;;;;;5107568;27;20104;-81
2023/01/06 06:51:20;;;;;;;11.77;9.65;;;10.40;99.90;;;;;;5104105;28;20100;-80
2023/01/06 06:53:46;;;;;;;11.25;10.05;;;10.30;99.90;;;;;;5123505;27;20192;-78
2023/01/06 06:56:13;;;;;;;11.48;9.98;;;10.30;99.90;;;;;;5110763;27;20046;-78
2023/01/06 06:58:39;;;;;;;12.23;10.30;;;10.30;99.90;;;;;;5137800;27;20483;-78
2023/01/06 07:01:12;;;;;;;12.07;10.38;;;10.30;99.90;;;;;;5111977;27;20460;-78
2023/01/06 07:03:39;;;;;;;13.45;10.45;;;10.20;99.90;;;;;;5116825;27;20035;-79
2023/01/06 07:06:07;;;;;;;12.05;10.25;;;10.20;99.90;;;;;;5110276;27;20059;-77
2023/01/06 07:08:33;;;;;;;12.68;10.95;;;10.20;99.90;;;;;;5110609;27;20488;-80
2023/01/06 07:10:59;;;;;;;11.90;10.55;;;10.20;99.90;;;;;;5094528;28;20098;-80
2023/01/06 07:13:24;;;;;;;11.20;10.10;;;10.10;99.90;;;;;;5112950;27;20041;-77
2023/01/06 07:15:50;;;;;;;12.73;11.15;;;10.10;99.90;;;;;;5128783;27;20035;-77
2023/01/06 07:18:17;;;;;;;13.30;10.95;;;10.10;99.90;;;;;;5128622;27;20039;-77
2023/01/06 07:20:47;;;;;;;12.23;10.32;;;10.10;99.90;;;;;;5129768;27;20073;-79
2023/01/06 07:23:13;;;;;;;12.00;10.70;;;10.20;99.90;;;;;;5127048;27;20063;-77
2023/01/06 07:25:39;;;;;;;11.75;10.35;;;10.20;99.90;;;;;;5121627;27;20039;-79
2023/01/06 07:28:06;;;;;;;12.45;11.15;;;10.20;99.90;;;;;;5099064;28;20507;-78
2023/01/06 07:30:32;;;;;;;13.20;11.13;;;10.20;99.90;;;;;;5110162;28;20049;-78
2023/01/06 07:32:58;;;;;;;11.32;10.05;;;10.20;99.90;;;;;;5133630;27;20039;-79
2023/01/06 07:35:24;;;;;;;12.68;11.40;;;10.20;99.90;;;;;;5117267;28;20043;-78
2023/01/06 07:37:49;;;;;;;12.00;10.80;;;10.20;99.90;;;;;;5102706;28;20075;-79
2023/01/06 07:40:16;;;;;;;12.07;10.85;;;10.30;99.90;;;;;;5103649;28;20035;-79
2023/01/06 07:42:42;;;;;;;12.85;11.55;;;10.30;99.90;;;;;;5126220;27;20109;-79
2023/01/06 07:45:09;;;;;;;12.75;10.90;;;10.30;99.90;;;;;;5102494;28;20579;-78
2023/01/06 07:47:34;;;;;;;13.07;11.20;;;10.30;99.90;;;;;;5118750;28;20024;-78
2023/01/06 07:50:00;;;;;;;12.50;9.85;;;10.30;99.90;;;;;;5127543;28;20046;-79
2023/01/06 07:52:26;;;;;;;11.25;9.05;;;10.40;99.90;;;;;;5122977;28;20474;-79
2023/01/06 07:54:52;;;;;;;9.68;8.50;;;10.40;99.90;;;;;;5120444;28;20043;-80
2023/01/06 07:57:17;;;;;;;9.57;8.57;;;10.40;99.90;;;;;;5095558;28;20089;-79
2023/01/06 07:59:43;;;;;;;9.60;8.60;;;10.50;99.90;;;;;;5120026;28;20088;-82
2023/01/06 08:02:12;;;;;;;9.50;8.50;;;10.60;99.90;;;;;;5106521;28;20031;-79
2023/01/06 08:04:37;;;;;;;10.45;9.02;;;10.50;99.90;;;;;;5102529;28;20391;-80
2023/01/06 08:07:03;;;;;;;11.27;9.57;;;10.60;99.90;;;;;;5114630;28;20433;-80
2023/01/06 08:09:29;;;;;;;8.98;7.30;;;10.50;99.90;;;;;;5082333;28;20042;-80
2023/01/06 08:11:55;;;;;;;8.38;6.43;;;10.50;99.90;;;;;;5144902;27;20421;-80
2023/01/06 08:14:20;;;;;;;8.02;5.32;;;10.60;99.90;;;;;;5106123;27;20075;-79
2023/01/06 08:16:46;;;;;;;7.75;5.15;;;10.60;99.90;;;;;;5104500;27;20071;-79
2023/01/06 08:19:11;;;;;;;6.43;3.80;;;10.60;99.90;;;;;;5107934;27;20479;-80
2023/01/06 08:21:37;;;;;;;7.20;3.85;;;10.60;99.90;;;;;;5098708;28;20471;-78
2023/01/06 08:24:04;;;;;;;5.47;2.92;;;10.50;99.90;;;;;;5113485;27;20572;-79
2023/01/06 08:26:30;;;;;;;6.13;2.33;;;10.50;99.90;;;;;;5101740;27;20407;-78
2023/01/06 08:28:55;;;;;;;5.72;2.20;;;10.40;99.90;;;;;;5112378;27;20031;-80
2023/01/06 08:31:21;;;;;;;5.53;1.70;;;10.30;99.90;;;;;;5112072;27;20597;-83
2023/01/06 08:33:48;;;;;;;5.45;1.58;;;10.20;99.90;;;;;;5112201;27;20039;-79
2023/01/06 08:36:17;;;;;;;5.10;1.40;;;10.20;99.90;;;;;;5122539;27;20095;-79
2023/01/06 08:38:44;;;;;;;5.53;1.30;;;10.10;99.90;;;;;;5108941;27;20040;-80
2023/01/06 08:41:09;;;;;;;4.03;1.40;;;10.00;99.90;;;;;;5091420;27;20057;-80
2023/01/06 08:43:35;;;;;;;6.40;1.63;;;10.00;99.90;;;;;;5111700;27;20027;-81
2023/01/06 08:46:04;;;;;;;4.85;1.48;;;9.90;99.90;;;;;;5125196;27;20030;-83
2023/01/06 08:48:30;;;;;;;3.97;1.25;;;9.90;99.90;;;;;;5135286;27;20058;-80
2023/01/06 08:51:02;;;;;;;4.32;1.23;;;9.80;99.90;;;;;;5104534;27;20121;-81
2023/01/06 08:53:28;;;;;;;6.18;1.50;;;9.70;99.90;;;;;;5120339;27;20031;-77
2023/01/06 08:55:53;;;;;;;6.95;1.75;;;9.70;99.90;;;;;;5101121;28;20062;-80
2023/01/06 08:58:19;;;;;;;6.30;1.60;;;9.60;99.90;;;;;;5103734;27;20110;-79
2023/01/06 09:00:45;;;;;;;4.57;1.52;;;9.60;99.90;;;;;;5124198;27;20042;-80
2023/01/06 09:03:10;;;;;;;5.28;1.60;;;9.60;99.90;;;;;;5124357;27;20459;-80
2023/01/06 09:05:36;;;;;;;6.43;1.73;;;9.60;99.90;;;;;;5104166;27;20046;-78
2023/01/06 09:08:02;;;;;;;6.80;1.73;;;9.60;99.90;;;;;;5098109;28;20118;-81
2023/01/06 09:10:27;;;;;;;6.05;1.85;;;9.60;99.90;;;;;;5094731;27;20122;-81
2023/01/06 09:12:53;;;;;;;8.32;2.13;;;9.50;99.90;;;;;;5130684;27;20039;-82
2023/01/06 09:15:19;;;;;;;6.53;1.42;;;9.40;99.90;;;;;;5101383;27;20043;-78
2023/01/06 09:17:44;;;;;;;8.05;1.60;;;9.50;99.90;;;;;;5109406;27;20082;-80
2023/01/06 09:20:10;;;;;;;4.72;1.40;;;9.50;99.90;;;;;;5100877;27;20028;-80
2023/01/06 09:22:36;;;;;;;6.82;1.60;;;9.50;99.90;;;;;;5102753;27;20039;-80
2023/01/06 09:25:02;;;;;;;7.55;1.60;;;9.50;99.90;;;;;;5101040;28;20527;-81
2023/01/06 09:27:28;;;;;;;8.23;1.80;;;9.60;99.90;;;;;;5112202;28;20043;-78
2023/01/06 09:29:53;;;;;;;7.63;1.63;;;9.60;99.90;;;;;;5118165;27;20039;-78
2023/01/06 09:32:19;;;;;;;7.78;1.70;;;9.60;99.90;;;;;;5112028;27;20031;-80
2023/01/06 09:34:45;;;;;;;8.02;1.90;;;9.50;99.90;;;;;;5101220;27;20035;-80
2023/01/06 09:37:10;;;;;;;6.32;1.42;;;9.50;99.90;;;;;;5102360;27;20452;-80
2023/01/06 09:39:36;;;;;;;6.25;1.45;;;9.40;99.90;;;;;;5105467;28;20044;-80
2023/01/06 09:42:23;;;;;;;6.90;1.50;;;9.50;99.90;;;;;;5105638;27;20027;-80
2023/01/06 09:45:15;;;;;;;8.20;1.70;;;9.50;99.90;;;;;;5127335;27;20113;-79
2023/01/06 09:47:51;;;;;;;8.75;1.90;;;9.50;99.90;;;;;;5107522;27;20060;-79
2023/01/06 09:50:40;;;;;;;7.18;1.52;;;9.50;99.90;;;;;;5118794;27;20039;-79
2023/01/06 09:53:43;;;;;;;6.97;1.67;;;9.50;99.90;;;;;;5122069;27;20040;-79
2023/01/06 09:56:13;;;;;;;7.88;1.48;;;9.50;99.90;;;;;;5046645;28;20045;-79
2023/01/06 09:58:46;;;;;;;7.10;1.67;;;9.50;99.90;;;;;;5031617;28;20045;-79
2023/01/06 10:01:15;;;;;;;8.13;1.50;;;9.50;99.90;;;;;;5047317;28;20129;-80
2023/01/06 10:03:44;;;;;;;9.85;1.40;;;9.50;99.90;;;;;;5048316;28;20045;-81
2023/01/06 10:06:43;;;;;;;9.15;1.60;;;9.50;99.90;;;;;;5046243;28;20404;-80
2023/01/06 10:09:11;;;;;;;9.02;1.65;;;9.60;99.90;;;;;;5030702;28;20183;-81
2023/01/06 10:11:57;;;;;;;8.70;1.77;;;9.60;99.90;;;;;;5031416;28;20055;-79
2023/01/06 10:14:37;;;;;;;6.78;1.50;;;9.60;99.90;;;;;;5047221;28;20043;-80
2023/01/06 10:17:23;;;;;;;8.45;1.75;;;9.60;99.90;;;;;;5031014;28;20049;-80
2023/01/06 10:20:12;;;;;;;9.10;1.88;;;9.60;99.90;;;;;;5030580;28;20072;-80
2023/01/06 10:22:43;;;;;;;10.85;2.03;;;9.70;99.90;;;;;;5030378;28;21694;-79
2023/01/06 10:25:14;;;;;;;8.57;2.13;;;9.70;99.90;;;;;;5031056;28;20045;-81
2023/01/06 10:27:41;;;;;;;;;;;9.70;99.90;;;;;;5031065;28;20048;-80
2023/01/06 10:30:15;;;;;;;13.20;2.33;;;9.70;99.90;;;;;;5045712;28;19923;-80
2023/01/06 10:32:44;;;;;;;8.85;1.77;;;9.70;99.90;;;;;;5120735;27;20498;-80
2023/01/06 10:35:16;;;;;;;11.70;2.25;;;9.70;99.90;;;;;;5128570;27;20039;-80
2023/01/06 10:37:48;;;;;;;10.35;2.17;;;9.80;99.90;;;;;;5102196;27;20038;-80
2023/01/06 10:40:17;;;;;;;11.98;2.63;;;9.80;99.90;;;;;;5092966;28;20035;-80
2023/01/06 10:42:59;;;;;;;8.20;1.90;;;9.80;99.90;;;;;;5100978;27;20457;-80
2023/01/06 10:45:46;;;;;;;8.15;1.55;;;9.90;99.90;;;;;;5100661;28;20049;-80
2023/01/06 10:48:19;;;;;;;9.90;2.10;;;9.90;99.90;;;;;;5113964;27;20039;-80
2023/01/06 10:50:45;;;;;;;10.18;2.10;;;9.90;99.90;;;;;;5121356;27;20046;-81
2023/01/06 10:53:12;;;;;;;11.32;2.60;;;9.90;99.90;;;;;;5137419;27;20071;-80
2023/01/06 10:55:39;;;;;;;9.82;2.10;;;10.00;99.90;;;;;;5123782;27;20039;-80
2023/01/06 10:58:12;;;;;;;11.57;1.98;;;9.90;99.90;;;;;;5110111;27;20491;-78
2023/01/06 11:01:00;;;;;;;10.70;2.50;;;10.00;99.90;;;;;;5116184;27;20031;-80
2023/01/06 11:03:27;;;;;;;11.02;2.05;;;10.00;99.90;;;;;;5134507;27;20032;-78
2023/01/06 11:06:16;;;;;;;7.65;1.80;;;10.00;99.90;;;;;;5104123;28;20039;-83
2023/01/06 11:08:41;;;;;;;10.82;2.22;;;10.00;99.90;;;;;;5098616;27;20118;-81
2023/01/06 11:11:14;;;;;;;10.77;2.60;;;10.10;99.90;;;;;;5096763;27;20118;-79
2023/01/06 11:13:44;;;;;;;7.93;1.60;;;10.10;99.90;;;;;;5121937;27;20048;-80
2023/01/06 11:16:20;;;;;;;12.45;2.20;;;10.20;99.90;;;;;;5111079;27;20093;-80
2023/01/06 11:18:54;;;;;;;10.70;2.25;;;10.10;99.90;;;;;;5106618;27;20083;-80
2023/01/06 11:21:20;;;;;;;11.80;2.17;;;10.20;99.90;;;;;;5104891;27;20039;-80
2023/01/06 11:23:47;;;;;;;9.75;1.90;;;10.20;99.90;;;;;;5099126;27;20087;-81
2023/01/06 11:26:15;;;;;;;9.80;2.15;;;10.20;99.90;;;;;;5103860;28;20043;-80
2023/01/06 11:28:43;;;;;;;9.30;1.85;;;10.30;99.90;;;;;;5116770;27;20170;-82
2023/01/06 11:31:12;;;;;;;10.55;2.28;;;10.30;99.90;;;;;;5084229;28;20035;-82
2023/01/06 11:33:46;;;;;;;11.18;2.30;;;10.30;99.90;;;;;;5118454;28;20436;-83
2023/01/06 11:36:14;;;;;;;10.13;2.40;;;10.40;99.90;;;;;;5111291;28;20047;-84
2023/01/06 11:38:48;;;;;;;9.95;2.00;;;10.40;99.90;;;;;;5135406;27;20450;-82
2023/01/06 11:41:24;;;;;;;10.63;2.05;;;10.40;99.90;;;;;;5118065;28;20032;-83
2023/01/06 11:43:53;;;;;;;10.80;2.70;;;10.50;99.90;;;;;;5105717;28;20058;-83
2023/01/06 11:46:22;;;;;;;7.80;2.22;;;10.50;99.90;;;;;;5112211;27;20046;-82
2023/01/06 11:49:01;;;;;;;10.65;2.22;;;10.50;99.90;;;;;;5110771;27;20035;-82
2023/01/06 11:51:41;;;;;;;7.88;2.03;;;10.50;99.90;;;;;;5126245;27;20039;-82
2023/01/06 11:54:30;;;;;;;10.60;2.42;;;10.50;99.90;;;;;;5116306;27;20505;-83
2023/01/06 11:57:21;;;;;;;10.50;2.05;;;10.40;99.90;;;;;;5116840;27;20035;-82
2023/01/06 12:00:23;;;;;;;9.00;2.13;;;10.50;99.90;;;;;;5134810;27;20054;-82
2023/01/06 12:03:11;;;;;;;10.23;2.10;;;10.50;99.90;;;;;;5116240;27;20047;-82
2023/01/06 12:05:37;;;;;;;8.75;2.22;;;10.60;99.90;;;;;;5114452;27;20076;-83
2023/01/06 12:08:25;;;;;;;9.82;2.10;;;10.60;99.90;;;;;;5115426;27;20093;-82
2023/01/06 12:11:04;;;;;;;9.32;1.98;;;10.50;99.90;;;;;;5098637;27;20042;-82
2023/01/06 12:13:32;;;;;;;8.57;2.00;;;10.40;99.90;;;;;;5100077;27;20039;-84
2023/01/06 12:16:06;;;;;;;8.65;1.98;;;10.40;99.90;;;;;;5114649;27;20130;-83
2023/01/06 12:18:35;;;;;;;11.20;2.15;;;10.30;99.90;;;;;;5098476;27;20035;-83
2023/01/06 12:21:03;;;;;;;8.73;2.20;;;10.30;99.90;;;;;;5106037;27;20490;-83
2023/01/06 12:23:41;;;;;;;9.05;1.73;;;10.30;99.90;;;;;;5111048;27;20047;-82
2023/01/06 12:26:27;;;;;;;8.70;2.45;;;10.20;99.90;;;;;;5113523;27;20093;-82
2023/01/06 12:28:54;;;;;;;13.02;2.78;;;10.10;99.90;;;;;;5121466;27;20043;-83
2023/01/06 12:31:42;;;;;;;10.18;2.30;;;10.10;99.90;;;;;;5139067;27;20043;-83
2023/01/06 12:34:35;;;;;;;9.27;2.22;;;10.10;99.90;;;;;;5139271;27;20044;-81
2023/01/06 12:37:12;;;;;;;11.48;2.20;;;10.10;99.90;;;;;;5121867;27;20032;-81
2023/01/06 12:40:01;;;;;;;8.02;2.10;;;10.10;99.90;;;;;;5106023;27;20047;-82
2023/01/06 12:42:52;;;;;;;9.02;2.00;;;10.10;99.90;;;;;;5095362;27;20075;-82
2023/01/06 12:45:27;;;;;;;11.32;2.17;;;10.10;99.90;;;;;;5096790;28;20046;-82
2023/01/06 12:47:55;;;;;;;11.65;1.95;;;10.10;99.90;;;;;;5127678;27;20729;-82
2023/01/06 12:50:36;;;;;;;10.45;2.10;;;10.10;99.90;;;;;;5109033;27;20046;-83
2023/01/06 12:53:20;;;;;;;;;;;10.10;99.90;;;;;;5108579;28;20403;-83
2023/01/06 12:56:07;;;;;;;8.98;2.13;;;10.20;99.90;;;;;;5121022;27;19958;-83